Time;durP1;ratioP1;P1;durP2;ratioP2;P2;SDS_P1;SDS_P2;PMS_P1;PMS_P2;Temp;Humidity;BMP_temperature;BMP_pressure;BME280_temperature;BME280_humidity;BME280_pressure;Samples;Min_cycle;Max_cycle;Signal;HPM_P1;HPM_P2
2022/02/25 00:02:18;;;;;;;14.80;1.60;;;;;;;;;;5052174;28;20483;-46
2022/02/25 00:04:45;;;;;;;23.50;1.90;;;;;;;;;;5053073;28;20031;-45
2022/02/25 00:07:12;;;;;;;15.27;1.77;;;;;;;;;;5052396;28;20026;-46
2022/02/25 00:09:39;;;;;;;16.48;2.17;;;;;;;;;;5050174;28;20052;-46
2022/02/25 00:12:06;;;;;;;11.43;2.42;;;;;;;;;;5050822;28;20017;-39
2022/02/25 00:14:33;;;;;;;14.48;2.30;;;;;;;;;;5049100;28;20033;-45
2022/02/25 00:17:00;;;;;;;11.57;2.00;;;;;;;;;;5052354;28;20132;-42
2022/02/25 00:19:27;;;;;;;13.02;1.80;;;;;;;;;;5052034;28;20037;-44
2022/02/25 00:21:54;;;;;;;14.27;2.35;;;;;;;;;;5050102;28;20448;-45
2022/02/25 00:24:22;;;;;;;13.25;2.45;;;;;;;;;;5023229;28;20057;-48
2022/02/25 00:26:49;;;;;;;8.55;2.25;;;;;;;;;;5050202;28;20028;-44
2022/02/25 00:29:16;;;;;;;15.35;2.35;;;;;;;;;;5051680;28;20809;-45
2022/02/25 00:31:43;;;;;;;15.20;2.65;;;;;;;;;;5051627;28;20500;-43
2022/02/25 00:34:10;;;;;;;17.48;2.65;;;;;;;;;;5052990;28;20043;-43
2022/02/25 00:36:37;;;;;;;15.45;2.40;;;;;;;;;;5052269;28;20170;-44
2022/02/25 00:39:04;;;;;;;18.13;2.97;;;;;;;;;;5052293;28;20037;-43
2022/02/25 00:41:31;;;;;;;19.75;2.63;;;;;;;;;;5051552;28;20032;-43
2022/02/25 00:43:58;;;;;;;17.02;3.05;;;;;;;;;;5048517;28;20118;-46
2022/02/25 00:46:25;;;;;;;14.55;3.08;;;;;;;;;;5052322;28;20044;-47
2022/02/25 00:48:52;;;;;;;16.98;2.83;;;;;;;;;;5052669;28;20025;-42
2022/02/25 00:51:19;;;;;;;21.27;3.40;;;;;;;;;;5050208;28;20105;-45
2022/02/25 00:53:46;;;;;;;17.52;3.20;;;;;;;;;;5050728;28;20532;-50
2022/02/25 00:56:13;;;;;;;24.23;3.00;;;;;;;;;;5050668;28;20035;-50
2022/02/25 00:58:40;;;;;;;19.50;3.05;;;;;;;;;;5049337;28;20025;-46
2022/02/25 01:01:07;;;;;;;11.23;2.05;;;;;;;;;;5049714;28;20037;-44
2022/02/25 01:03:35;;;;;;;15.35;2.70;;;;;;;;;;5049103;28;20021;-43
2022/02/25 01:06:02;;;;;;;17.60;3.97;;;;;;;;;;5048909;28;20078;-48
2022/02/25 01:08:29;;;;;;;19.77;3.88;;;;;;;;;;5051422;28;20021;-44
2022/02/25 01:10:56;;;;;;;20.55;3.28;;;;;;;;;;5048950;28;20029;-41
2022/02/25 01:13:23;;;;;;;31.88;7.05;;;;;;;;;;5050616;28;20039;-46
2022/02/25 01:15:50;;;;;;;45.85;10.02;;;;;;;;;;5052040;28;20033;-51
2022/02/25 01:18:17;;;;;;;33.97;7.13;;;;;;;;;;5051126;28;20029;-49
2022/02/25 01:20:44;;;;;;;31.73;7.03;;;;;;;;;;5051258;28;20074;-49
2022/02/25 01:23:11;;;;;;;26.95;5.57;;;;;;;;;;5051270;28;20082;-49
2022/02/25 01:25:38;;;;;;;27.10;5.30;;;;;;;;;;5051976;28;20033;-46
2022/02/25 01:28:05;;;;;;;19.73;5.25;;;;;;;;;;5050936;28;20036;-50
2022/02/25 01:30:32;;;;;;;18.92;5.10;;;;;;;;;;5051756;28;20090;-46
2022/02/25 01:32:59;;;;;;;21.85;5.43;;;;;;;;;;5051647;28;20403;-53
2022/02/25 01:35:26;;;;;;;17.30;5.25;;;;;;;;;;5033498;28;20033;-48
2022/02/25 01:37:53;;;;;;;24.58;4.68;;;;;;;;;;5051233;28;20422;-46
2022/02/25 01:40:22;;;;;;;16.00;4.20;;;;;;;;;;5050888;28;20702;-48
2022/02/25 01:42:53;;;;;;;22.75;4.72;;;;;;;;;;5051009;28;20045;-49
2022/02/25 01:45:20;;;;;;;15.40;4.15;;;;;;;;;;5033207;28;20029;-50
2022/02/25 01:47:48;;;;;;;16.88;4.53;;;;;;;;;;5051364;28;20049;-42
2022/02/25 01:50:15;;;;;;;17.88;4.63;;;;;;;;;;5050754;28;20025;-46
2022/02/25 01:52:49;;;;;;;15.32;4.57;;;;;;;;;;5051469;28;20116;-44
2022/02/25 01:55:16;;;;;;;16.20;4.60;;;;;;;;;;5050935;28;20445;-44
2022/02/25 01:57:43;;;;;;;12.55;4.43;;;;;;;;;;5033547;28;20041;-45
2022/02/25 02:00:10;;;;;;;22.17;4.30;;;;;;;;;;5050851;28;20082;-45
2022/02/25 02:02:37;;;;;;;14.50;4.05;;;;;;;;;;5049097;28;20041;-44
2022/02/25 02:05:04;;;;;;;17.83;4.38;;;;;;;;;;5049001;28;20108;-49
2022/02/25 02:07:31;;;;;;;11.85;3.55;;;;;;;;;;5030036;28;20115;-50
2022/02/25 02:10:00;;;;;;;12.13;3.47;;;;;;;;;;5049264;28;20453;-46
2022/02/25 02:12:27;;;;;;;15.77;3.63;;;;;;;;;;5049098;28;20060;-41
2022/02/25 02:14:54;;;;;;;16.10;3.85;;;;;;;;;;5050888;28;20029;-40
2022/02/25 02:17:22;;;;;;;19.35;3.22;;;;;;;;;;5059586;28;20033;-39
2022/02/25 02:19:49;;;;;;;16.15;2.78;;;;;;;;;;5070606;28;20477;-36
2022/02/25 02:22:17;;;;;;;18.80;3.72;;;;;;;;;;5070742;28;20477;-38
2022/02/25 02:24:44;;;;;;;19.27;2.88;;;;;;;;;;5059906;28;20438;-37
2022/02/25 02:27:10;;;;;;;16.80;2.92;;;;;;;;;;5050404;28;20029;-35
2022/02/25 02:29:37;;;;;;;20.42;3.65;;;;;;;;;;5051546;28;20037;-39
2022/02/25 02:32:04;;;;;;;16.33;2.97;;;;;;;;;;5049949;28;20505;-40
2022/02/25 02:34:32;;;;;;;18.13;2.90;;;;;;;;;;5050865;28;20155;-36
2022/02/25 02:36:59;;;;;;;9.45;2.13;;;;;;;;;;5032563;28;20677;-36
2022/02/25 02:39:26;;;;;;;14.43;2.55;;;;;;;;;;5050840;28;20037;-37
2022/02/25 02:41:52;;;;;;;12.45;2.35;;;;;;;;;;5051156;28;20029;-38
2022/02/25 02:44:19;;;;;;;14.18;2.00;;;;;;;;;;5051298;28;20521;-39
2022/02/25 02:46:46;;;;;;;6.68;1.80;;;;;;;;;;5050275;28;20418;-39
2022/02/25 02:49:13;;;;;;;5.32;1.40;;;;;;;;;;5032480;28;20078;-38
2022/02/25 02:51:40;;;;;;;7.65;1.20;;;;;;;;;;5051179;28;20060;-38
2022/02/25 02:54:07;;;;;;;7.18;1.40;;;;;;;;;;5050518;28;20075;-38
2022/02/25 02:56:34;;;;;;;3.03;1.35;;;;;;;;;;5051409;28;20117;-38
2022/02/25 02:59:01;;;;;;;9.13;1.30;;;;;;;;;;5050727;28;20025;-39
2022/02/25 03:01:30;;;;;;;6.07;1.52;;;;;;;;;;5051165;28;20057;-39
2022/02/25 03:03:58;;;;;;;5.78;1.27;;;;;;;;;;5050762;28;20021;-36
2022/02/25 03:06:26;;;;;;;5.55;1.33;;;;;;;;;;5051478;28;20043;-38
2022/02/25 03:08:54;;;;;;;3.47;0.90;;;;;;;;;;5051017;28;20032;-39
2022/02/25 03:11:21;;;;;;;3.38;0.90;;;;;;;;;;5050956;28;20037;-38
2022/02/25 03:13:49;;;;;;;2.70;0.90;;;;;;;;;;5032794;28;20570;-38
2022/02/25 03:16:16;;;;;;;2.92;0.90;;;;;;;;;;5051416;28;20112;-38
2022/02/25 03:18:43;;;;;;;3.67;0.93;;;;;;;;;;5050860;28;20052;-36
2022/02/25 03:21:10;;;;;;;4.40;0.95;;;;;;;;;;5051243;28;20087;-37
2022/02/25 03:23:37;;;;;;;4.85;0.93;;;;;;;;;;5051062;28;20025;-38
2022/02/25 03:26:04;;;;;;;2.38;0.90;;;;;;;;;;5051106;28;20437;-37
2022/02/25 03:28:31;;;;;;;1.30;0.80;;;;;;;;;;5051397;28;20068;-36
2022/02/25 03:30:59;;;;;;;3.08;0.77;;;;;;;;;;5050524;28;20636;-37
2022/02/25 03:33:26;;;;;;;1.67;0.80;;;;;;;;;;5051240;28;20478;-37
2022/02/25 03:35:53;;;;;;;2.25;0.90;;;;;;;;;;5050657;28;20382;-37
2022/02/25 03:38:20;;;;;;;1.40;0.70;;;;;;;;;;5051181;28;20155;-37
2022/02/25 03:40:46;;;;;;;2.67;0.75;;;;;;;;;;5050774;28;20087;-37
2022/02/25 03:43:13;;;;;;;1.95;0.60;;;;;;;;;;5053350;28;20021;-36
2022/02/25 03:45:40;;;;;;;1.02;0.63;;;;;;;;;;5054078;28;20095;-39
2022/02/25 03:48:07;;;;;;;1.25;0.60;;;;;;;;;;5054801;28;20033;-39
2022/02/25 03:50:34;;;;;;;0.68;0.40;;;;;;;;;;5054137;28;20021;-36
2022/02/25 03:53:01;;;;;;;2.85;0.70;;;;;;;;;;5054537;28;20040;-39
2022/02/25 03:55:29;;;;;;;1.02;0.50;;;;;;;;;;5054006;28;20032;-39
2022/02/25 03:57:56;;;;;;;1.23;0.60;;;;;;;;;;5054578;28;20017;-39
2022/02/25 04:00:23;;;;;;;1.00;0.60;;;;;;;;;;5053749;28;20696;-39
2022/02/25 04:02:50;;;;;;;1.67;0.60;;;;;;;;;;5054281;28;20518;-39
2022/02/25 04:05:17;;;;;;;2.20;0.50;;;;;;;;;;5053938;28;20033;-38
2022/02/25 04:07:44;;;;;;;0.77;0.60;;;;;;;;;;5054170;28;20483;-38
2022/02/25 04:10:12;;;;;;;2.65;0.50;;;;;;;;;;5036609;28;20029;-37
2022/02/25 04:12:40;;;;;;;1.75;0.77;;;;;;;;;;5053797;28;20025;-39
2022/02/25 04:15:07;;;;;;;4.25;0.75;;;;;;;;;;5053840;28;20394;-36
2022/02/25 04:17:34;;;;;;;0.90;0.50;;;;;;;;;;5053813;28;20028;-37
2022/02/25 04:20:01;;;;;;;4.07;0.55;;;;;;;;;;5053997;28;20079;-37
2022/02/25 04:22:28;;;;;;;1.80;0.60;;;;;;;;;;5053640;28;20025;-39
2022/02/25 04:24:55;;;;;;;1.10;0.50;;;;;;;;;;5053883;28;20025;-36
2022/02/25 04:27:24;;;;;;;1.17;0.50;;;;;;;;;;5053437;28;20025;-36
2022/02/25 04:29:51;;;;;;;0.63;0.43;;;;;;;;;;5035894;28;20552;-39
2022/02/25 04:32:18;;;;;;;2.50;0.50;;;;;;;;;;5053424;28;20167;-36
2022/02/25 04:34:45;;;;;;;1.98;0.70;;;;;;;;;;5053887;28;20040;-36
2022/02/25 04:37:12;;;;;;;0.82;0.60;;;;;;;;;;5053065;28;20100;-39
2022/02/25 04:39:39;;;;;;;1.55;0.80;;;;;;;;;;5053668;28;20029;-38
2022/02/25 04:42:06;;;;;;;1.70;0.63;;;;;;;;;;5053319;28;20512;-36
2022/02/25 04:44:33;;;;;;;1.42;0.70;;;;;;;;;;5035806;28;20489;-37
2022/02/25 04:47:00;;;;;;;1.85;0.70;;;;;;;;;;5053144;28;20100;-39
2022/02/25 04:49:27;;;;;;;1.85;0.70;;;;;;;;;;5053566;28;20479;-38
2022/02/25 04:51:53;;;;;;;0.70;0.52;;;;;;;;;;5053541;28;20025;-36
2022/02/25 04:54:21;;;;;;;1.77;0.93;;;;;;;;;;5052960;28;20120;-39
2022/02/25 04:56:48;;;;;;;1.15;0.50;;;;;;;;;;5053140;28;20033;-41
2022/02/25 04:59:15;;;;;;;2.00;0.50;;;;;;;;;;5052716;28;20025;-39
2022/02/25 05:01:43;;;;;;;4.03;0.60;;;;;;;;;;5052764;28;20128;-36
2022/02/25 05:04:10;;;;;;;0.93;0.43;;;;;;;;;;5052675;28;20076;-38
2022/02/25 05:06:37;;;;;;;0.73;0.65;;;;;;;;;;5053176;28;20494;-37
2022/02/25 05:09:04;;;;;;;1.20;0.70;;;;;;;;;;5052676;28;20021;-36
2022/02/25 05:11:31;;;;;;;1.33;0.50;;;;;;;;;;5053071;28;20070;-39
2022/02/25 05:13:59;;;;;;;0.60;0.50;;;;;;;;;;5052712;28;20025;-39
2022/02/25 05:22:09;;;;;;;0.75;0.40;;;;;;;;;;4971216;28;20057;-33
2022/02/25 05:24:36;;;;;;;1.80;0.57;;;;;;;;;;4973653;28;20022;-39
2022/02/25 05:27:04;;;;;;;0.90;0.50;;;;;;;;;;4973912;28;20038;-40
2022/02/25 05:29:31;;;;;;;1.55;0.50;;;;;;;;;;4973277;28;20496;-38
2022/02/25 05:31:58;;;;;;;0.77;0.40;;;;;;;;;;4973904;28;20038;-40
2022/02/25 05:34:25;;;;;;;1.70;0.52;;;;;;;;;;4973321;28;20042;-38
2022/02/25 05:36:52;;;;;;;1.20;0.50;;;;;;;;;;4973656;28;20030;-39
2022/02/25 05:39:19;;;;;;;0.98;0.40;;;;;;;;;;4973064;28;20392;-36
2022/02/25 05:41:46;;;;;;;0.50;0.40;;;;;;;;;;4973603;28;20397;-42
2022/02/25 05:44:13;;;;;;;2.25;0.50;;;;;;;;;;4973694;28;20018;-40
2022/02/25 05:46:40;;;;;;;2.50;0.47;;;;;;;;;;4973110;28;20042;-44
2022/02/25 05:49:07;;;;;;;0.90;0.60;;;;;;;;;;4973694;28;20049;-44
2022/02/25 05:51:34;;;;;;;1.45;0.47;;;;;;;;;;4972959;28;20035;-43
2022/02/25 05:54:01;;;;;;;2.28;0.45;;;;;;;;;;4973528;28;20102;-40
2022/02/25 05:56:28;;;;;;;0.82;0.40;;;;;;;;;;4972800;28;20030;-39
2022/02/25 05:58:55;;;;;;;0.55;0.43;;;;;;;;;;4973590;28;20480;-43
2022/02/25 06:01:22;;;;;;;1.05;0.40;;;;;;;;;;4987568;28;20035;-44
2022/02/25 06:03:49;;;;;;;3.15;0.40;;;;;;;;;;4973383;28;20102;-40
2022/02/25 06:06:17;;;;;;;2.38;0.52;;;;;;;;;;4972382;28;20105;-44
2022/02/25 06:08:44;;;;;;;0.77;0.55;;;;;;;;;;4973117;28;20027;-45
2022/02/25 06:11:11;;;;;;;0.82;0.52;;;;;;;;;;4972721;28;20031;-43
2022/02/25 06:13:38;;;;;;;1.17;0.52;;;;;;;;;;4973199;28;20031;-42
2022/02/25 06:16:05;;;;;;;0.80;0.50;;;;;;;;;;4972716;28;20031;-40
2022/02/25 06:18:34;;;;;;;2.58;0.60;;;;;;;;;;4972740;28;20026;-43
2022/02/25 06:21:01;;;;;;;1.38;0.60;;;;;;;;;;4972355;28;20417;-37
2022/02/25 06:23:28;;;;;;;1.50;0.60;;;;;;;;;;4988128;28;20046;-37
2022/02/25 06:25:55;;;;;;;0.57;0.50;;;;;;;;;;4973230;28;20095;-40
2022/02/25 06:28:22;;;;;;;2.20;0.40;;;;;;;;;;4972967;28;20445;-38
2022/02/25 06:30:49;;;;;;;1.23;0.50;;;;;;;;;;4972911;28;20042;-33
2022/02/25 06:33:16;;;;;;;0.90;0.50;;;;;;;;;;4972438;28;20033;-40
2022/02/25 06:35:43;;;;;;;1.35;0.60;;;;;;;;;;4973020;28;20030;-42
2022/02/25 06:38:10;;;;;;;0.70;0.60;;;;;;;;;;4972319;28;20026;-40
2022/02/25 06:40:37;;;;;;;2.47;0.52;;;;;;;;;;4972833;28;20042;-37
2022/02/25 06:43:04;;;;;;;1.33;0.65;;;;;;;;;;4972344;28;20519;-35
2022/02/25 06:45:31;;;;;;;0.80;0.50;;;;;;;;;;4972793;28;20549;-37
2022/02/25 06:47:58;;;;;;;0.93;0.60;;;;;;;;;;4972244;28;20481;-38
2022/02/25 06:50:25;;;;;;;2.45;0.60;;;;;;;;;;4972801;28;20027;-38
2022/02/25 06:52:53;;;;;;;0.40;0.40;;;;;;;;;;4972355;28;20031;-39
2022/02/25 06:55:20;;;;;;;2.75;0.47;;;;;;;;;;4972927;28;20042;-39
2022/02/25 06:57:47;;;;;;;2.63;0.57;;;;;;;;;;4972098;28;20037;-40
2022/02/25 07:00:21;;;;;;;0.98;0.52;;;;;;;;;;4972691;28;20066;-40
2022/02/25 07:02:51;;;;;;;0.90;0.55;;;;;;;;;;4972264;28;20062;-39
2022/02/25 07:05:22;;;;;;;1.05;0.50;;;;;;;;;;4972731;28;20503;-40
2022/02/25 07:07:49;;;;;;;0.50;0.43;;;;;;;;;;4972557;28;20436;-43
2022/02/25 07:10:17;;;;;;;1.23;0.55;;;;;;;;;;4972580;28;20137;-39
2022/02/25 07:12:44;;;;;;;1.08;0.60;;;;;;;;;;4972753;28;20496;-39
2022/02/25 07:15:11;;;;;;;1.40;0.80;;;;;;;;;;4972196;28;20077;-34
2022/02/25 07:17:38;;;;;;;1.02;0.60;;;;;;;;;;4974049;28;20041;-35
2022/02/25 07:20:06;;;;;;;0.75;0.60;;;;;;;;;;4975515;28;20054;-38
2022/02/25 07:22:33;;;;;;;0.50;0.43;;;;;;;;;;4976317;28;20023;-35
2022/02/25 07:25:00;;;;;;;0.68;0.60;;;;;;;;;;4975747;28;20068;-36
2022/02/25 07:27:27;;;;;;;0.70;0.50;;;;;;;;;;4976084;28;20061;-33
2022/02/25 07:29:54;;;;;;;0.65;0.50;;;;;;;;;;4990124;28;20406;-39
2022/02/25 07:32:23;;;;;;;1.63;0.80;;;;;;;;;;4976135;28;20041;-41
2022/02/25 07:34:50;;;;;;;0.80;0.60;;;;;;;;;;4975548;28;20038;-44
2022/02/25 07:37:17;;;;;;;0.60;0.52;;;;;;;;;;4990801;28;20031;-39
2022/02/25 07:39:44;;;;;;;1.10;0.60;;;;;;;;;;4975090;28;20463;-38
2022/02/25 07:42:12;;;;;;;0.88;0.50;;;;;;;;;;4975897;28;20031;-41
2022/02/25 07:44:39;;;;;;;2.10;0.60;;;;;;;;;;4975513;28;20027;-35
2022/02/25 07:47:06;;;;;;;1.00;0.50;;;;;;;;;;4975898;28;20035;-39
2022/02/25 07:49:34;;;;;;;0.95;0.60;;;;;;;;;;4975332;28;20027;-41
2022/02/25 07:52:01;;;;;;;2.70;0.52;;;;;;;;;;4975348;28;20039;-40
2022/02/25 07:54:31;;;;;;;0.65;0.43;;;;;;;;;;4975695;28;20034;-43
2022/02/25 07:56:58;;;;;;;1.48;0.60;;;;;;;;;;4975173;28;20030;-39
2022/02/25 07:59:25;;;;;;;0.77;0.50;;;;;;;;;;4975094;28;20039;-38
2022/02/25 08:01:52;;;;;;;0.80;0.50;;;;;;;;;;4975111;28;20045;-42
2022/02/25 08:04:19;;;;;;;1.38;0.60;;;;;;;;;;4975590;28;20029;-39
2022/02/25 08:06:47;;;;;;;1.05;0.70;;;;;;;;;;4989810;28;20374;-40
2022/02/25 08:09:14;;;;;;;0.50;0.50;;;;;;;;;;4975107;28;20399;-37
2022/02/25 08:11:41;;;;;;;2.33;0.60;;;;;;;;;;4974897;28;20118;-43
2022/02/25 08:14:08;;;;;;;0.40;0.40;;;;;;;;;;4975362;28;20042;-40
2022/02/25 08:16:35;;;;;;;0.77;0.50;;;;;;;;;;4974918;28;20027;-38
2022/02/25 08:19:02;;;;;;;1.75;0.40;;;;;;;;;;4974912;28;20041;-39
2022/02/25 08:21:29;;;;;;;0.60;0.50;;;;;;;;;;4974536;28;20532;-41
2022/02/25 08:23:56;;;;;;;0.60;0.60;;;;;;;;;;4975233;28;20510;-41
2022/02/25 08:26:23;;;;;;;1.20;0.60;;;;;;;;;;4974679;28;20073;-33
2022/02/25 08:28:51;;;;;;;0.70;0.50;;;;;;;;;;4974410;28;20481;-39
2022/02/25 08:31:19;;;;;;;0.80;0.60;;;;;;;;;;4989484;28;20537;-39
2022/02/25 08:33:46;;;;;;;2.10;0.50;;;;;;;;;;4974790;28;20089;-39
2022/02/25 08:36:13;;;;;;;0.50;0.50;;;;;;;;;;4974982;28;20558;-38
2022/02/25 08:38:40;;;;;;;1.38;0.52;;;;;;;;;;4974342;28;20035;-40
2022/02/25 08:41:07;;;;;;;1.65;0.60;;;;;;;;;;4974645;28;20023;-36
2022/02/25 08:43:34;;;;;;;2.28;0.60;;;;;;;;;;4974169;28;20069;-36
2022/02/25 08:46:01;;;;;;;1.15;0.50;;;;;;;;;;4974758;28;20027;-38
2022/02/25 08:48:29;;;;;;;1.30;0.50;;;;;;;;;;4974269;28;20026;-37
2022/02/25 08:50:56;;;;;;;1.25;0.95;;;;;;;;;;4974393;28;20440;-41
2022/02/25 08:53:24;;;;;;;2.22;0.60;;;;;;;;;;4974057;28;20026;-42
2022/02/25 08:55:51;;;;;;;1.83;0.73;;;;;;;;;;4974536;28;20030;-38
2022/02/25 08:58:20;;;;;;;1.83;0.70;;;;;;;;;;4974195;28;20022;-38
2022/02/25 09:00:47;;;;;;;1.58;0.70;;;;;;;;;;4974200;28;20105;-37
2022/02/25 09:03:14;;;;;;;5.00;0.50;;;;;;;;;;4973850;28;20023;-41
2022/02/25 09:05:41;;;;;;;2.25;0.70;;;;;;;;;;4974566;28;20019;-43
2022/02/25 09:08:08;;;;;;;1.40;0.75;;;;;;;;;;4973966;28;20027;-42
2022/02/25 09:10:36;;;;;;;1.17;0.60;;;;;;;;;;4974149;28;20539;-41
2022/02/25 09:13:03;;;;;;;2.17;0.60;;;;;;;;;;4973897;28;20114;-39
2022/02/25 09:15:30;;;;;;;6.70;0.82;;;;;;;;;;4974202;28;20037;-43
2022/02/25 09:17:58;;;;;;;1.75;0.80;;;;;;;;;;4974133;28;20027;-40
2022/02/25 09:20:26;;;;;;;4.72;0.63;;;;;;;;;;4973154;28;20051;-37
2022/02/25 09:22:53;;;;;;;1.20;0.70;;;;;;;;;;4974076;28;20026;-39
2022/02/25 09:25:20;;;;;;;2.25;0.50;;;;;;;;;;4973417;28;20053;-37
2022/02/25 09:27:47;;;;;;;0.60;0.60;;;;;;;;;;4973941;28;20548;-42
2022/02/25 09:30:16;;;;;;;2.70;0.70;;;;;;;;;;4973205;28;20087;-39
2022/02/25 09:32:43;;;;;;;3.65;0.80;;;;;;;;;;4974020;28;20022;-40
2022/02/25 09:35:11;;;;;;;3.10;0.82;;;;;;;;;;4973375;28;20085;-44
2022/02/25 09:37:38;;;;;;;1.55;0.60;;;;;;;;;;4973803;28;20101;-39
2022/02/25 09:40:07;;;;;;;2.65;0.70;;;;;;;;;;4987342;28;20039;-40
2022/02/25 09:42:38;;;;;;;1.52;0.63;;;;;;;;;;4973677;28;20592;-41
2022/02/25 09:45:06;;;;;;;1.95;0.60;;;;;;;;;;4973464;28;20507;-39
2022/02/25 09:47:35;;;;;;;2.13;0.93;;;;;;;;;;4973541;28;20035;-40
2022/02/25 09:50:12;;;;;;;1.60;0.75;;;;;;;;;;4973117;28;20473;-38
2022/02/25 09:52:39;;;;;;;3.00;0.93;;;;;;;;;;4973635;28;20027;-41
2022/02/25 09:55:18;;;;;;;1.50;0.90;;;;;;;;;;4973014;28;20397;-40
2022/02/25 09:57:45;;;;;;;22.25;1.33;;;;;;;;;;4973691;28;20477;-36
2022/02/25 10:00:13;;;;;;;2.67;0.93;;;;;;;;;;4972657;28;20093;-37
2022/02/25 10:02:44;;;;;;;5.65;1.00;;;;;;;;;;4973461;28;20093;-41
2022/02/25 10:05:16;;;;;;;4.22;0.90;;;;;;;;;;4973253;28;20247;-42
2022/02/25 10:07:43;;;;;;;0.93;0.70;;;;;;;;;;4973420;28;20030;-38
2022/02/25 10:10:11;;;;;;;5.50;1.00;;;;;;;;;;4973150;28;20069;-37
2022/02/25 10:12:39;;;;;;;3.50;0.90;;;;;;;;;;4972303;28;20109;-41
2022/02/25 10:15:07;;;;;;;2.92;0.63;;;;;;;;;;4973134;28;20102;-44
2022/02/25 10:17:35;;;;;;;2.55;1.13;;;;;;;;;;4971055;28;20130;-44
2022/02/25 10:20:04;;;;;;;9.23;1.50;;;;;;;;;;4972701;28;20058;-42
2022/02/25 10:22:33;;;;;;;8.02;2.20;;;;;;;;;;5005859;28;20416;-42
2022/02/25 10:25:01;;;;;;;12.20;1.83;;;;;;;;;;4992269;28;20117;-41
2022/02/25 10:27:31;;;;;;;8.13;1.70;;;;;;;;;;4991205;28;20106;-41
2022/02/25 10:30:00;;;;;;;6.93;1.77;;;;;;;;;;4992143;28;20030;-44
2022/02/25 10:32:28;;;;;;;7.18;1.90;;;;;;;;;;4991475;28;20038;-41
2022/02/25 10:34:55;;;;;;;6.20;1.63;;;;;;;;;;4991905;28;20388;-42
2022/02/25 10:37:22;;;;;;;7.10;1.42;;;;;;;;;;4991407;28;20061;-41
2022/02/25 10:39:49;;;;;;;6.68;1.52;;;;;;;;;;4991884;28;20034;-44
2022/02/25 10:42:19;;;;;;;4.60;1.25;;;;;;;;;;4991067;28;20548;-43
2022/02/25 10:44:53;;;;;;;10.43;1.65;;;;;;;;;;4992221;28;20369;-41
2022/02/25 10:47:21;;;;;;;7.00;1.50;;;;;;;;;;4991094;28;20117;-40
2022/02/25 10:49:50;;;;;;;5.63;1.52;;;;;;;;;;4992023;28;20100;-41
2022/02/25 10:52:48;;;;;;;10.00;2.03;;;;;;;;;;4974037;28;20417;-45
2022/02/25 10:55:16;;;;;;;12.05;1.60;;;;;;;;;;4943961;28;20455;-43
2022/02/25 10:57:43;;;;;;;6.80;1.63;;;;;;;;;;4956095;28;20066;-44
2022/02/25 11:00:11;;;;;;;8.18;1.48;;;;;;;;;;4956165;28;20038;-39
2022/02/25 11:02:39;;;;;;;7.35;1.33;;;;;;;;;;4968936;28;20066;-45
2022/02/25 11:05:08;;;;;;;5.50;1.20;;;;;;;;;;4974909;28;20031;-41
2022/02/25 11:07:39;;;;;;;4.45;1.20;;;;;;;;;;4975111;28;20113;-41
2022/02/25 11:10:07;;;;;;;4.90;1.65;;;;;;;;;;4973865;28;20038;-40
2022/02/25 11:12:39;;;;;;;3.45;1.25;;;;;;;;;;4980996;28;20026;-42
2022/02/25 11:15:08;;;;;;;15.43;1.88;;;;;;;;;;4993881;28;20089;-44
2022/02/25 11:17:35;;;;;;;98.65;5.78;;;;;;;;;;4994292;28;20054;-38
2022/02/25 11:20:04;;;;;;;38.42;2.97;;;;;;;;;;4993961;28;20441;-38
2022/02/25 11:22:33;;;;;;;178.52;11.38;;;;;;;;;;4994641;28;20073;-39
2022/02/25 11:25:00;;;;;;;160.55;12.55;;;;;;;;;;4993629;28;20152;-37
2022/02/25 11:27:27;;;;;;;79.63;6.78;;;;;;;;;;4993232;28;20037;-36
2022/02/25 11:29:57;;;;;;;28.50;3.60;;;;;;;;;;4994389;28;20082;-36
2022/02/25 11:32:28;;;;;;;45.13;4.63;;;;;;;;;;4994090;28;20027;-35
2022/02/25 11:34:55;;;;;;;34.50;4.55;;;;;;;;;;4994279;28;20113;-38
2022/02/25 11:37:41;;;;;;;45.72;5.03;;;;;;;;;;4993441;28;20034;-38
2022/02/25 11:40:09;;;;;;;38.22;4.55;;;;;;;;;;4993479;28;20066;-34
2022/02/25 11:42:36;;;;;;;158.95;14.15;;;;;;;;;;4994669;28;20038;-34
2022/02/25 11:45:04;;;;;;;41.58;4.75;;;;;;;;;;4994067;28;20022;-36
2022/02/25 11:47:39;;;;;;;45.95;5.00;;;;;;;;;;4993240;28;20026;-34
2022/02/25 11:50:25;;;;;;;27.52;4.10;;;;;;;;;;4994207;28;20062;-36
2022/02/25 11:53:00;;;;;;;24.98;2.72;;;;;;;;;;4994016;28;20514;-34
2022/02/25 11:55:33;;;;;;;16.80;2.05;;;;;;;;;;4993113;28;20038;-36
2022/02/25 11:58:18;;;;;;;16.77;2.75;;;;;;;;;;4992872;28;20045;-37
2022/02/25 12:01:11;;;;;;;13.60;2.20;;;;;;;;;;4993229;28;20042;-34
2022/02/25 12:03:58;;;;;;;23.42;2.35;;;;;;;;;;4989039;28;20153;-36
2022/02/25 12:06:28;;;;;;;19.73;2.28;;;;;;;;;;4993231;28;20129;-34
2022/02/25 12:09:00;;;;;;;14.85;2.03;;;;;;;;;;4992820;28;20030;-35
2022/02/25 12:11:35;;;;;;;7.47;1.55;;;;;;;;;;4993437;28;20066;-36
2022/02/25 12:14:02;;;;;;;7.95;1.70;;;;;;;;;;4993524;28;20500;-36
2022/02/25 12:16:30;;;;;;;11.07;1.50;;;;;;;;;;4993169;28;20034;-36
2022/02/25 12:19:08;;;;;;;6.65;1.23;;;;;;;;;;4992430;28;20445;-34
2022/02/25 12:21:42;;;;;;;9.00;1.58;;;;;;;;;;4992907;28;20058;-36
2022/02/25 12:24:18;;;;;;;5.63;1.40;;;;;;;;;;4993331;28;20034;-35
2022/02/25 12:26:57;;;;;;;4.88;1.38;;;;;;;;;;4993392;28;20483;-34
2022/02/25 12:29:32;;;;;;;7.28;1.67;;;;;;;;;;4992517;28;20038;-37
2022/02/25 12:32:00;;;;;;;8.38;1.92;;;;;;;;;;4992799;28;20113;-34
2022/02/25 12:34:27;;;;;;;8.52;1.95;;;;;;;;;;4993065;28;20470;-35
2022/02/25 12:36:54;;;;;;;4.78;1.13;;;;;;;;;;4993756;28;20023;-35
2022/02/25 12:39:25;;;;;;;3.55;0.95;;;;;;;;;;4991986;28;20466;-36
2022/02/25 12:41:56;;;;;;;9.82;1.35;;;;;;;;;;4992886;28;20034;-39
2022/02/25 12:44:25;;;;;;;4.60;1.17;;;;;;;;;;4992755;28;20045;-37
2022/02/25 12:46:54;;;;;;;5.40;1.02;;;;;;;;;;4993154;28;20270;-37
2022/02/25 12:49:22;;;;;;;3.60;0.90;;;;;;;;;;4992533;28;20117;-37
2022/02/25 12:51:50;;;;;;;1.88;1.00;;;;;;;;;;4992146;28;20109;-38
2022/02/25 12:54:18;;;;;;;5.47;0.85;;;;;;;;;;4974645;28;20480;-35
2022/02/25 12:56:51;;;;;;;4.18;1.17;;;;;;;;;;4973838;28;20042;-35
2022/02/25 12:59:23;;;;;;;7.65;1.00;;;;;;;;;;4972572;28;20035;-34
2022/02/25 13:01:55;;;;;;;3.33;0.80;;;;;;;;;;4972389;28;20365;-37
2022/02/25 13:04:24;;;;;;;2.20;0.90;;;;;;;;;;4973033;28;20086;-36
2022/02/25 13:06:52;;;;;;;4.07;1.20;;;;;;;;;;4973522;28;20027;-36
2022/02/25 13:09:21;;;;;;;7.65;1.33;;;;;;;;;;4972323;28;20026;-36
2022/02/25 13:11:53;;;;;;;3.75;0.98;;;;;;;;;;4972557;28;20054;-39
2022/02/25 13:14:21;;;;;;;2.03;1.07;;;;;;;;;;4972696;28;20109;-36
2022/02/25 13:17:03;;;;;;;6.07;1.00;;;;;;;;;;4973199;28;20559;-36
2022/02/25 13:19:32;;;;;;;2.05;0.88;;;;;;;;;;4972146;28;20042;-36
2022/02/25 13:22:07;;;;;;;2.40;0.75;;;;;;;;;;4973163;28;20045;-35
2022/02/25 13:24:35;;;;;;;2.78;0.80;;;;;;;;;;4971854;28;20121;-36
2022/02/25 13:27:04;;;;;;;14.77;1.48;;;;;;;;;;4973252;28;20110;-38
2022/02/25 13:29:31;;;;;;;18.80;1.63;;;;;;;;;;4972218;28;20030;-38
2022/02/25 13:32:03;;;;;;;6.50;0.90;;;;;;;;;;4972684;28;20041;-39
2022/02/25 13:34:30;;;;;;;9.52;0.98;;;;;;;;;;4972416;28;20031;-38
2022/02/25 13:36:57;;;;;;;1.50;0.73;;;;;;;;;;4971015;28;20461;-40
2022/02/25 13:39:31;;;;;;;2.35;0.80;;;;;;;;;;4972672;28;20031;-41
2022/02/25 13:41:59;;;;;;;7.72;0.60;;;;;;;;;;4972760;28;20038;-40
2022/02/25 13:44:32;;;;;;;1.75;0.57;;;;;;;;;;4973037;28;20025;-40
2022/02/25 13:52:29;;;;;;;11.68;0.90;;;;;;;;;;4972396;28;20110;-37
2022/02/25 13:54:58;;;;;;;6.85;0.80;;;;;;;;;;4972917;28;20101;-38
2022/02/25 13:57:26;;;;;;;3.30;0.70;;;;;;;;;;4954965;28;20026;-38
2022/02/25 13:59:57;;;;;;;1.13;0.50;;;;;;;;;;4955408;28;20501;-37
2022/02/25 14:02:29;;;;;;;1.70;0.60;;;;;;;;;;4972356;28;20070;-38
2022/02/25 14:05:13;;;;;;;2.13;0.73;;;;;;;;;;4972633;28;20054;-38
2022/02/25 14:07:41;;;;;;;2.83;0.60;;;;;;;;;;4971972;28;20027;-40
2022/02/25 14:10:21;;;;;;;2.85;0.80;;;;;;;;;;4972799;28;20027;-40
2022/02/25 14:12:49;;;;;;;4.68;0.90;;;;;;;;;;4972415;28;20030;-38
2022/02/25 14:15:17;;;;;;;8.98;1.15;;;;;;;;;;4972158;28;20031;-38
2022/02/25 14:18:09;;;;;;;24.98;1.77;;;;;;;;;;4969913;28;20027;-35
2022/02/25 14:20:37;;;;;;;15.05;1.65;;;;;;;;;;4970516;28;20488;-39
2022/02/25 14:23:06;;;;;;;15.10;1.50;;;;;;;;;;4971884;28;20026;-38
2022/02/25 14:25:34;;;;;;;12.25;1.10;;;;;;;;;;4972140;28;20465;-38
2022/02/25 14:28:07;;;;;;;9.20;1.17;;;;;;;;;;4971778;28;20505;-38
2022/02/25 14:30:39;;;;;;;7.07;1.00;;;;;;;;;;4972305;28;20034;-38
2022/02/25 14:33:05;;;;;;;;;;;;;;;;;;4972561;28;20109;-40
2022/02/25 14:35:32;;;;;;;4.55;0.90;;;;;;;;;;4972376;28;19938;-40
2022/02/25 14:38:00;;;;;;;5.32;0.95;;;;;;;;;;4971658;28;20070;-40
2022/02/25 14:40:27;;;;;;;5.25;0.95;;;;;;;;;;4972375;28;20388;-40
2022/02/25 14:42:56;;;;;;;2.67;0.90;;;;;;;;;;4972074;28;20037;-39
2022/02/25 14:45:24;;;;;;;5.88;0.93;;;;;;;;;;4971895;28;20038;-40
2022/02/25 14:47:51;;;;;;;5.22;1.20;;;;;;;;;;4972077;28;20488;-39
2022/02/25 14:50:18;;;;;;;2.80;0.90;;;;;;;;;;4972198;28;20432;-37
2022/02/25 14:52:45;;;;;;;8.40;1.30;;;;;;;;;;4971873;28;20049;-38
2022/02/25 14:55:12;;;;;;;17.38;1.45;;;;;;;;;;4971624;28;20073;-38
2022/02/25 14:57:40;;;;;;;12.57;1.38;;;;;;;;;;4972171;28;20041;-38